Time;durP1;ratioP1;P1;durP2;ratioP2;P2;SDS_P1;SDS_P2;PMS_P1;PMS_P2;Temp;Humidity;BMP_temperature;BMP_pressure;BME280_temperature;BME280_humidity;BME280_pressure;Samples;Min_cycle;Max_cycle;Signal;HPM_P1;HPM_P2
2023/08/24 00:01:16;;;;;;;6.83;4.57;;;18.20;99.90;;;;;;5053050;28;20435;-60
2023/08/24 00:03:44;;;;;;;4.97;4.23;;;18.10;99.90;;;;;;5053918;28;20491;-60
2023/08/24 00:06:11;;;;;;;5.80;3.77;;;18.10;99.90;;;;;;5057131;28;20540;-60
2023/08/24 00:08:38;;;;;;;4.60;3.70;;;18.10;99.90;;;;;;5057675;28;20464;-61
2023/08/24 00:11:05;;;;;;;7.03;4.00;;;18.10;99.90;;;;;;5054274;28;20440;-60
2023/08/24 00:13:32;;;;;;;6.20;3.77;;;18.10;99.90;;;;;;5053520;28;20436;-60
2023/08/24 00:15:59;;;;;;;4.37;3.90;;;18.10;99.90;;;;;;5052640;28;20444;-61
2023/08/24 00:18:27;;;;;;;4.10;3.40;;;18.00;99.90;;;;;;5053037;28;20475;-60
2023/08/24 00:20:54;;;;;;;4.67;3.63;;;18.00;99.90;;;;;;5052613;28;20443;-61
2023/08/24 00:23:20;;;;;;;8.70;4.03;;;18.00;99.90;;;;;;5052900;28;20502;-60
2023/08/24 00:25:47;;;;;;;4.67;4.10;;;18.00;99.90;;;;;;5052871;28;20440;-61
2023/08/24 00:28:14;;;;;;;4.77;3.60;;;18.00;99.90;;;;;;5055705;28;20474;-61
2023/08/24 00:30:41;;;;;;;4.87;4.20;;;18.00;99.90;;;;;;5057229;28;20471;-60
2023/08/24 00:33:07;;;;;;;4.33;3.93;;;17.90;99.90;;;;;;5057084;28;20439;-60
2023/08/24 00:35:35;;;;;;;4.50;4.03;;;17.90;99.90;;;;;;5056699;28;20448;-60
2023/08/24 00:38:02;;;;;;;5.83;4.20;;;17.80;99.90;;;;;;5056351;28;21077;-62
2023/08/24 00:40:29;;;;;;;4.40;3.60;;;17.80;99.90;;;;;;5056775;28;20447;-62
2023/08/24 00:42:56;;;;;;;6.00;3.70;;;17.80;99.90;;;;;;5056356;28;20447;-61
2023/08/24 00:45:22;;;;;;;5.47;4.00;;;17.80;99.90;;;;;;5056762;28;20450;-62
2023/08/24 00:47:49;;;;;;;7.27;4.20;;;17.70;99.90;;;;;;5056526;28;20436;-61
2023/08/24 00:50:18;;;;;;;4.80;3.80;;;17.70;99.90;;;;;;5056667;28;20425;-61
2023/08/24 00:52:48;;;;;;;5.10;3.80;;;17.70;99.90;;;;;;5056324;28;20934;-61
2023/08/24 00:55:15;;;;;;;5.23;4.47;;;17.70;99.90;;;;;;5057688;28;20759;-62
2023/08/24 00:57:42;;;;;;;5.30;3.97;;;17.70;99.90;;;;;;5056020;28;21004;-62
2023/08/24 01:00:10;;;;;;;4.53;4.03;;;17.70;99.90;;;;;;5056218;28;20440;-61
2023/08/24 01:02:37;;;;;;;4.63;4.23;;;17.70;99.90;;;;;;5056423;28;20446;-62
2023/08/24 01:05:05;;;;;;;4.73;3.93;;;17.70;99.90;;;;;;5056545;28;20502;-60
2023/08/24 01:07:33;;;;;;;6.83;4.80;;;17.60;99.90;;;;;;5056513;28;20471;-60
2023/08/24 01:10:01;;;;;;;4.53;4.13;;;17.60;99.90;;;;;;5056138;28;20456;-61
2023/08/24 01:12:33;;;;;;;5.40;4.27;;;17.60;99.90;;;;;;5056225;28;20466;-61
2023/08/24 01:15:08;;;;;;;4.13;3.73;;;17.60;99.90;;;;;;5056188;28;20427;-61
2023/08/24 01:17:36;;;;;;;4.40;4.10;;;17.50;99.90;;;;;;5056062;28;20463;-60
2023/08/24 01:20:06;;;;;;;4.83;4.10;;;17.50;99.90;;;;;;5055901;28;20464;-61
2023/08/24 01:22:38;;;;;;;5.73;4.60;;;17.40;99.90;;;;;;5055879;28;20444;-60
2023/08/24 01:25:13;;;;;;;8.97;4.50;;;17.40;99.90;;;;;;5056081;28;20428;-61
2023/08/24 01:27:41;;;;;;;4.97;4.40;;;17.40;99.90;;;;;;5055618;28;20431;-60
2023/08/24 01:30:10;;;;;;;5.60;3.77;;;17.40;99.90;;;;;;5055725;28;20831;-60
2023/08/24 01:32:37;;;;;;;7.13;4.23;;;17.40;99.90;;;;;;5055695;28;20440;-61
2023/08/24 01:35:06;;;;;;;4.77;3.80;;;17.40;99.90;;;;;;5056159;28;20448;-61
2023/08/24 01:37:34;;;;;;;9.57;5.03;;;17.30;99.90;;;;;;5056114;28;21075;-60
2023/08/24 01:40:09;;;;;;;5.93;4.43;;;17.30;99.90;;;;;;5054969;28;20492;-60
2023/08/24 01:42:38;;;;;;;4.70;4.03;;;17.20;99.90;;;;;;5056683;28;20428;-59
2023/08/24 01:45:08;;;;;;;5.00;4.60;;;17.20;99.90;;;;;;5056234;28;20521;-59
2023/08/24 01:47:37;;;;;;;8.90;4.70;;;17.20;99.90;;;;;;5056608;28;20443;-59
2023/08/24 01:50:04;;;;;;;6.90;4.00;;;17.20;99.90;;;;;;5095810;22;20491;-61
2023/08/24 01:52:33;;;;;;;6.27;4.80;;;17.10;99.90;;;;;;5076276;28;20451;-61
2023/08/24 01:55:00;;;;;;;6.53;4.60;;;17.10;99.90;;;;;;5076095;28;20462;-62
2023/08/24 01:57:26;;;;;;;5.47;4.67;;;17.10;99.90;;;;;;5075212;28;20826;-63
2023/08/24 01:59:53;;;;;;;7.10;5.33;;;17.00;99.90;;;;;;5075456;28;20534;-61
2023/08/24 02:02:22;;;;;;;5.30;4.70;;;17.00;99.90;;;;;;5075398;28;20786;-63
2023/08/24 02:04:48;;;;;;;6.10;4.20;;;17.00;99.90;;;;;;5075377;28;20446;-61
2023/08/24 02:07:15;;;;;;;9.33;4.97;;;16.90;99.90;;;;;;5075276;28;20431;-62
2023/08/24 02:09:42;;;;;;;6.60;5.70;;;16.90;99.90;;;;;;5075030;28;20821;-61
2023/08/24 02:12:09;;;;;;;6.97;4.90;;;16.90;99.90;;;;;;5074880;28;20446;-62
2023/08/24 02:14:35;;;;;;;6.53;5.07;;;16.90;99.90;;;;;;5074749;28;20936;-63
2023/08/24 02:17:03;;;;;;;7.10;4.93;;;16.90;99.90;;;;;;5075006;28;20549;-61
2023/08/24 02:19:31;;;;;;;6.40;5.40;;;16.90;99.90;;;;;;5075122;28;20466;-61
2023/08/24 02:21:58;;;;;;;6.10;4.47;;;16.90;99.90;;;;;;5074825;28;20941;-63
2023/08/24 02:24:25;;;;;;;6.90;5.77;;;16.80;99.90;;;;;;5075192;28;20435;-62
2023/08/24 02:26:51;;;;;;;6.20;5.60;;;16.80;99.90;;;;;;5075062;28;20447;-61
2023/08/24 02:29:18;;;;;;;7.13;6.43;;;16.80;99.90;;;;;;5074832;28;20459;-62
2023/08/24 02:31:45;;;;;;;8.37;5.50;;;16.80;99.90;;;;;;5074932;28;20447;-61
2023/08/24 02:34:12;;;;;;;7.80;6.13;;;16.80;99.90;;;;;;5075345;28;20434;-61
2023/08/24 02:36:40;;;;;;;7.37;6.67;;;16.80;99.90;;;;;;5075077;28;20443;-61
2023/08/24 02:39:07;;;;;;;6.90;6.20;;;16.80;99.90;;;;;;5074849;28;20479;-61
2023/08/24 02:41:34;;;;;;;10.20;6.77;;;16.80;99.90;;;;;;5074960;28;20804;-61
2023/08/24 02:44:01;;;;;;;7.03;6.33;;;16.70;99.90;;;;;;5075071;28;20443;-61
2023/08/24 02:46:28;;;;;;;7.13;5.97;;;16.70;99.90;;;;;;5074821;28;20450;-61
2023/08/24 02:48:55;;;;;;;5.93;5.50;;;16.70;99.90;;;;;;5074368;28;20471;-61
2023/08/24 02:51:23;;;;;;;8.17;6.37;;;16.60;99.90;;;;;;5073485;28;20451;-62
2023/08/24 02:53:51;;;;;;;7.00;6.27;;;16.60;99.90;;;;;;5074330;28;20933;-61
2023/08/24 02:56:18;;;;;;;7.40;5.93;;;16.60;99.90;;;;;;5074535;28;20435;-61
2023/08/24 02:58:44;;;;;;;6.73;6.10;;;16.50;99.90;;;;;;5074280;28;21022;-62
2023/08/24 03:01:11;;;;;;;8.17;6.47;;;16.50;99.90;;;;;;5075081;28;20518;-63
2023/08/24 03:03:39;;;;;;;7.83;6.60;;;16.50;99.90;;;;;;5074841;28;20975;-61
2023/08/24 03:06:08;;;;;;;8.00;5.83;;;16.40;99.90;;;;;;5074827;28;20435;-61
2023/08/24 03:08:36;;;;;;;5.87;4.93;;;16.40;99.90;;;;;;5074404;28;20466;-61
2023/08/24 03:11:04;;;;;;;6.40;5.80;;;16.40;99.90;;;;;;5074413;28;20850;-62
2023/08/24 03:13:31;;;;;;;6.93;5.17;;;16.30;99.90;;;;;;5074160;28;20435;-61
2023/08/24 03:15:58;;;;;;;6.53;5.87;;;16.30;99.90;;;;;;5074132;28;20442;-62
2023/08/24 03:18:25;;;;;;;8.33;6.00;;;16.20;99.90;;;;;;5073765;28;20483;-62
2023/08/24 03:20:52;;;;;;;8.60;6.10;;;16.20;99.90;;;;;;5073588;28;20499;-61
2023/08/24 03:23:18;;;;;;;6.73;5.90;;;16.20;99.90;;;;;;5074786;28;20446;-61
2023/08/24 03:25:45;;;;;;;8.83;6.83;;;16.20;99.90;;;;;;5073887;28;20442;-62
2023/08/24 03:28:13;;;;;;;7.03;6.33;;;16.20;99.90;;;;;;5074439;28;20435;-62
2023/08/24 03:30:46;;;;;;;6.70;5.80;;;16.20;99.90;;;;;;5073635;28;20450;-62
2023/08/24 03:33:12;;;;;;;6.70;5.70;;;16.20;99.90;;;;;;5073395;28;20435;-62
2023/08/24 03:35:40;;;;;;;6.03;5.40;;;16.10;99.90;;;;;;5073908;28;20440;-62
2023/08/24 03:38:07;;;;;;;8.17;5.37;;;16.10;99.90;;;;;;5073472;28;20855;-62
2023/08/24 03:40:33;;;;;;;7.43;5.87;;;16.10;99.90;;;;;;5073605;28;20868;-61
2023/08/24 03:43:01;;;;;;;10.13;5.97;;;16.10;99.90;;;;;;5073237;28;20445;-61
2023/08/24 03:45:29;;;;;;;6.60;5.87;;;16.10;99.90;;;;;;5073404;28;20508;-61
2023/08/24 03:47:56;;;;;;;7.70;5.90;;;16.10;99.90;;;;;;5073047;28;20818;-61
2023/08/24 03:50:23;;;;;;;7.33;5.60;;;16.00;99.90;;;;;;5072865;28;20447;-61
2023/08/24 03:52:51;;;;;;;6.30;5.60;;;16.00;99.90;;;;;;5073259;28;20447;-61
2023/08/24 03:55:18;;;;;;;7.90;5.90;;;16.00;99.90;;;;;;5073229;28;20439;-61
2023/08/24 03:57:45;;;;;;;7.50;5.80;;;16.00;99.90;;;;;;5073108;28;20505;-61
2023/08/24 04:00:14;;;;;;;7.23;6.63;;;16.00;99.90;;;;;;5073286;28;20467;-59
2023/08/24 04:02:42;;;;;;;8.47;5.77;;;16.00;99.90;;;;;;5072874;28;20509;-60
2023/08/24 04:05:09;;;;;;;7.60;6.63;;;16.00;99.90;;;;;;5073213;28;20446;-62
2023/08/24 04:07:38;;;;;;;6.43;5.83;;;16.00;99.90;;;;;;5073198;28;20431;-62
2023/08/24 04:12:08;;;;;;;7.28;6.68;;;16.00;99.90;;;;;;5112494;27;1229828;-63
2023/08/24 04:14:35;;;;;;;7.40;6.43;;;16.00;99.90;;;;;;5131899;28;20202;-62
2023/08/24 04:17:02;;;;;;;9.57;6.90;;;16.00;99.90;;;;;;5131421;28;20933;-61
2023/08/24 04:19:29;;;;;;;8.80;6.70;;;16.00;99.90;;;;;;5118559;28;20453;-62
2023/08/24 04:21:55;;;;;;;12.13;7.50;;;16.00;99.90;;;;;;5110856;28;20456;-64
2023/08/24 04:24:23;;;;;;;7.87;7.07;;;16.00;99.90;;;;;;5110957;28;20444;-62
2023/08/24 04:26:49;;;;;;;10.40;6.47;;;16.00;99.90;;;;;;5111241;28;20498;-62
2023/08/24 04:29:18;;;;;;;7.30;6.27;;;16.00;99.90;;;;;;5110852;28;20815;-62
2023/08/24 04:31:44;;;;;;;6.80;6.10;;;16.00;99.90;;;;;;5111417;28;20477;-63
2023/08/24 04:34:11;;;;;;;7.63;6.90;;;16.10;99.90;;;;;;5111998;28;20529;-62
2023/08/24 04:36:38;;;;;;;8.23;7.20;;;16.10;99.90;;;;;;5111610;28;20437;-62
2023/08/24 04:39:05;;;;;;;7.90;6.97;;;16.30;99.90;;;;;;5110765;28;20517;-63
2023/08/24 04:41:32;;;;;;;7.37;6.73;;;16.40;99.90;;;;;;5110789;28;20437;-60
2023/08/24 04:43:59;;;;;;;8.20;7.40;;;16.50;99.90;;;;;;5111530;28;20437;-63
2023/08/24 04:46:27;;;;;;;13.23;7.00;;;16.70;99.90;;;;;;5113038;28;20438;-63
2023/08/24 04:48:54;;;;;;;8.00;6.03;;;17.00;99.90;;;;;;5111821;28;20469;-61
2023/08/24 04:51:21;;;;;;;8.30;7.07;;;17.10;99.90;;;;;;5111865;28;20476;-62
2023/08/24 04:53:47;;;;;;;8.33;6.30;;;17.30;99.90;;;;;;5112516;28;20449;-61
2023/08/24 04:56:14;;;;;;;9.80;7.07;;;17.40;99.90;;;;;;5112519;28;20445;-62
2023/08/24 04:58:41;;;;;;;9.00;6.80;;;17.50;99.90;;;;;;5112428;28;20468;-61
2023/08/24 05:01:08;;;;;;;9.77;7.27;;;17.70;99.90;;;;;;5112031;28;20438;-62
2023/08/24 05:03:36;;;;;;;8.90;7.40;;;17.80;99.90;;;;;;5111405;28;20944;-62
2023/08/24 05:06:02;;;;;;;8.77;7.87;;;18.00;99.90;;;;;;5111985;28;20827;-61
2023/08/24 05:08:29;;;;;;;9.63;8.13;;;18.10;99.90;;;;;;5112652;28;20468;-64
2023/08/24 05:10:56;;;;;;;9.57;8.50;;;18.10;99.90;;;;;;5112100;28;20475;-62
2023/08/24 05:13:23;;;;;;;9.20;7.63;;;18.10;99.90;;;;;;5111950;28;20525;-62
2023/08/24 05:15:50;;;;;;;9.70;8.30;;;18.00;99.90;;;;;;5111900;28;20445;-62
2023/08/24 05:18:17;;;;;;;11.20;8.00;;;18.00;99.90;;;;;;5111718;28;20479;-63
2023/08/24 05:20:45;;;;;;;9.30;7.67;;;17.90;99.90;;;;;;5111789;28;20433;-62
2023/08/24 05:23:11;;;;;;;15.07;7.40;;;17.80;99.90;;;;;;5099422;28;20442;-62
2023/08/24 05:25:38;;;;;;;8.53;7.50;;;17.80;99.90;;;;;;5097568;28;20445;-62
2023/08/24 05:28:06;;;;;;;10.03;8.13;;;17.80;99.90;;;;;;5100316;28;20442;-62
2023/08/24 05:30:33;;;;;;;7.80;7.00;;;17.90;99.90;;;;;;5102855;28;20481;-62
2023/08/24 05:32:59;;;;;;;10.60;6.90;;;17.90;99.90;;;;;;5098877;28;20965;-63
2023/08/24 05:35:27;;;;;;;9.10;8.23;;;17.90;99.90;;;;;;5097406;28;20438;-62
2023/08/24 05:37:55;;;;;;;9.80;7.93;;;17.90;99.90;;;;;;5097024;28;20438;-64
2023/08/24 05:40:22;;;;;;;9.20;7.63;;;17.90;99.90;;;;;;5096191;28;20954;-62
2023/08/24 05:42:48;;;;;;;14.90;7.67;;;18.00;99.90;;;;;;5096849;28;20438;-62
2023/08/24 05:45:15;;;;;;;8.47;7.47;;;18.00;99.90;;;;;;5096036;28;20446;-62
2023/08/24 05:47:42;;;;;;;11.13;7.93;;;18.10;99.90;;;;;;5096396;28;20435;-62
2023/08/24 05:50:11;;;;;;;9.70;7.87;;;18.10;99.90;;;;;;5096521;28;20455;-62
2023/08/24 05:52:38;;;;;;;8.60;7.80;;;18.20;99.90;;;;;;5096662;28;20544;-62
2023/08/24 05:55:07;;;;;;;7.30;6.60;;;18.20;99.90;;;;;;5096451;28;20441;-63
2023/08/24 05:57:33;;;;;;;11.10;8.20;;;18.30;99.90;;;;;;5098339;28;20446;-62
2023/08/24 06:00:00;;;;;;;9.53;8.17;;;18.40;99.90;;;;;;5097108;28;20462;-64
2023/08/24 06:02:27;;;;;;;8.50;6.60;;;18.40;99.90;;;;;;5097074;28;20944;-62
2023/08/24 06:04:53;;;;;;;9.20;7.53;;;18.50;99.90;;;;;;5097442;28;20453;-62
2023/08/24 06:07:21;;;;;;;7.27;6.57;;;18.50;99.90;;;;;;5097717;28;20445;-62
2023/08/24 06:09:48;;;;;;;8.13;7.37;;;18.60;99.90;;;;;;5097181;28;20484;-61
2023/08/24 06:12:16;;;;;;;8.33;7.33;;;18.60;99.90;;;;;;5098005;28;20482;-62
2023/08/24 06:14:43;;;;;;;9.83;8.00;;;18.70;99.90;;;;;;5098452;28;20969;-62
2023/08/24 06:17:09;;;;;;;8.47;7.23;;;18.70;99.90;;;;;;5098876;28;20864;-62
2023/08/24 06:19:36;;;;;;;8.43;7.27;;;18.80;99.90;;;;;;5099090;28;20473;-61
2023/08/24 06:22:03;;;;;;;11.53;8.83;;;18.80;99.90;;;;;;5098246;28;20470;-63
2023/08/24 06:24:30;;;;;;;9.03;8.13;;;18.70;99.90;;;;;;5097292;28;20447;-62
2023/08/24 06:26:56;;;;;;;8.40;7.67;;;18.70;99.90;;;;;;5097904;28;20444;-62
2023/08/24 06:29:24;;;;;;;9.47;7.67;;;18.80;99.90;;;;;;5096553;28;20462;-62
2023/08/24 06:31:51;;;;;;;12.03;7.73;;;18.80;99.90;;;;;;5097682;28;20480;-62
2023/08/24 06:34:18;;;;;;;10.77;8.03;;;18.90;99.90;;;;;;5095850;28;20442;-62
2023/08/24 06:36:44;;;;;;;9.37;6.80;;;19.00;99.90;;;;;;5096880;28;20438;-62
2023/08/24 06:39:11;;;;;;;8.53;7.73;;;19.10;99.90;;;;;;5096373;28;20465;-63
2023/08/24 06:41:38;;;;;;;13.57;7.07;;;19.20;99.90;;;;;;5096484;28;20442;-61
2023/08/24 06:44:05;;;;;;;9.60;7.70;;;19.20;99.90;;;;;;5096934;28;20961;-63
2023/08/24 06:46:33;;;;;;;8.20;7.40;;;19.30;99.90;;;;;;5096784;28;20530;-63
2023/08/24 06:49:00;;;;;;;9.07;6.90;;;19.40;99.90;;;;;;5096724;28;20548;-62
2023/08/24 06:51:28;;;;;;;8.50;7.30;;;19.50;99.90;;;;;;5096579;28;20480;-61
2023/08/24 06:53:54;;;;;;;9.03;6.67;;;19.70;99.90;;;;;;5097359;28;20438;-63
2023/08/24 06:56:21;;;;;;;9.67;7.93;;;19.90;99.90;;;;;;5097293;28;20444;-63
2023/08/24 06:58:49;;;;;;;7.40;6.40;;;20.00;99.90;;;;;;5098027;28;20840;-62
2023/08/24 07:01:15;;;;;;;7.20;6.40;;;20.20;99.90;;;;;;5097526;28;20454;-62
2023/08/24 07:03:44;;;;;;;9.10;6.97;;;20.30;99.90;;;;;;5097744;28;20452;-63
2023/08/24 07:06:11;;;;;;;9.70;6.93;;;20.40;99.90;;;;;;5097365;28;20446;-62
2023/08/24 07:08:39;;;;;;;9.10;7.03;;;20.50;99.90;;;;;;5096644;28;20470;-62
2023/08/24 07:11:06;;;;;;;9.00;7.20;;;20.70;99.90;;;;;;5096903;28;20574;-62
2023/08/24 07:13:34;;;;;;;8.17;7.07;;;21.00;99.90;;;;;;5096933;28;20507;-63
2023/08/24 07:16:02;;;;;;;6.57;5.90;;;21.10;99.90;;;;;;5097412;28;20529;-64
2023/08/24 07:18:28;;;;;;;6.97;5.77;;;21.10;99.90;;;;;;5097969;28;21054;-63
2023/08/24 07:20:57;;;;;;;10.43;6.33;;;21.20;99.90;;;;;;5100036;28;20456;-64
2023/08/24 07:23:23;;;;;;;6.57;5.97;;;21.40;99.90;;;;;;5098255;28;20958;-62
2023/08/24 07:25:50;;;;;;;8.50;5.87;;;21.60;99.90;;;;;;5097975;28;20438;-62
2023/08/24 07:28:17;;;;;;;8.33;7.50;;;21.80;99.90;;;;;;5096384;28;20450;-63
2023/08/24 07:30:44;;;;;;;7.50;6.80;;;21.80;99.90;;;;;;5096954;28;20440;-62
2023/08/24 07:33:11;;;;;;;7.93;7.13;;;21.80;99.90;;;;;;5097295;28;20457;-63
2023/08/24 07:35:39;;;;;;;7.20;6.50;;;21.80;99.90;;;;;;5097093;28;20958;-62
2023/08/24 07:38:07;;;;;;;7.27;6.67;;;21.80;99.90;;;;;;5096752;28;20446;-63
2023/08/24 07:40:34;;;;;;;8.13;7.53;;;21.80;99.90;;;;;;5097832;28;20443;-62
2023/08/24 07:43:00;;;;;;;7.63;6.77;;;21.80;99.90;;;;;;5097101;28;20448;-64
2023/08/24 07:45:27;;;;;;;7.47;6.83;;;21.80;99.90;;;;;;5097059;28;20802;-63
2023/08/24 07:47:55;;;;;;;7.70;7.00;;;21.70;99.90;;;;;;5097012;28;20843;-63
2023/08/24 07:50:23;;;;;;;7.80;7.10;;;21.70;99.90;;;;;;5101637;22;20517;-65
2023/08/24 07:52:49;;;;;;;7.53;6.83;;;21.80;99.90;;;;;;5072522;28;20481;-65
2023/08/24 07:55:18;;;;;;;7.97;6.57;;;21.90;99.90;;;;;;5073367;28;20448;-64
2023/08/24 07:57:44;;;;;;;7.10;6.10;;;22.00;99.70;;;;;;5073025;28;20443;-64
2023/08/24 08:00:13;;;;;;;7.00;6.40;;;22.10;99.20;;;;;;5087104;28;20458;-64
2023/08/24 08:02:40;;;;;;;6.67;6.10;;;22.20;99.00;;;;;;5092759;28;20445;-65
2023/08/24 08:05:07;;;;;;;6.43;5.87;;;22.40;98.10;;;;;;5092889;28;20449;-65
2023/08/24 08:07:34;;;;;;;6.90;6.20;;;22.40;97.30;;;;;;5092970;28;20810;-64
2023/08/24 08:10:01;;;;;;;7.43;6.20;;;22.40;96.90;;;;;;5093284;28;20454;-64
2023/08/24 08:12:31;;;;;;;6.47;5.87;;;22.50;96.70;;;;;;5093077;28;20475;-64
2023/08/24 08:14:58;;;;;;;7.10;5.93;;;22.60;96.30;;;;;;5093349;28;20426;-64
2023/08/24 08:17:25;;;;;;;7.00;5.77;;;22.70;95.70;;;;;;5092998;28;20438;-65
2023/08/24 08:19:55;;;;;;;7.03;5.90;;;22.80;95.40;;;;;;5092903;28;20458;-64
2023/08/24 08:22:22;;;;;;;6.67;5.53;;;22.90;95.00;;;;;;5093937;28;20429;-64
2023/08/24 08:24:49;;;;;;;6.27;5.67;;;23.10;94.40;;;;;;5093103;28;20435;-64
2023/08/24 08:27:16;;;;;;;7.60;5.83;;;23.20;93.70;;;;;;5093209;28;20442;-64
2023/08/24 08:29:44;;;;;;;8.10;4.97;;;23.30;93.30;;;;;;5093303;28;20454;-64
2023/08/24 08:32:12;;;;;;;5.67;5.27;;;23.40;92.80;;;;;;5093482;28;20505;-66
2023/08/24 08:34:38;;;;;;;5.63;5.23;;;23.60;92.20;;;;;;5093794;28;20502;-68
2023/08/24 08:37:05;;;;;;;7.00;5.77;;;23.70;91.60;;;;;;5093735;28;20433;-68
2023/08/24 08:39:33;;;;;;;5.90;5.30;;;23.80;91.10;;;;;;5098202;28;20467;-67
2023/08/24 08:42:01;;;;;;;6.10;5.57;;;23.90;90.60;;;;;;5098093;28;20442;-68
2023/08/24 08:44:32;;;;;;;6.27;5.47;;;24.00;90.00;;;;;;5098653;28;20978;-68
2023/08/24 08:47:00;;;;;;;5.50;4.90;;;23.90;89.50;;;;;;5099665;28;20530;-67
2023/08/24 08:49:27;;;;;;;5.00;4.60;;;24.00;88.90;;;;;;5098120;28;20474;-68
2023/08/24 08:51:54;;;;;;;5.87;4.90;;;24.00;88.30;;;;;;5096352;28;20862;-68
2023/08/24 08:54:21;;;;;;;7.80;5.90;;;24.00;87.90;;;;;;5092376;28;20454;-68
2023/08/24 08:56:48;;;;;;;6.77;5.90;;;24.00;87.00;;;;;;5092890;28;20806;-68
2023/08/24 08:59:16;;;;;;;5.17;4.77;;;24.00;86.90;;;;;;5096011;28;20465;-68
2023/08/24 09:01:44;;;;;;;6.90;5.50;;;24.10;86.10;;;;;;5095940;28;20599;-68
2023/08/24 09:04:12;;;;;;;6.77;5.73;;;24.10;84.90;;;;;;5095537;28;20892;-66
2023/08/24 09:06:40;;;;;;;5.90;5.40;;;24.10;83.90;;;;;;5096334;28;20444;-66
2023/08/24 09:09:07;;;;;;;6.23;5.73;;;24.00;83.20;;;;;;5096036;28;20454;-67
2023/08/24 09:11:34;;;;;;;6.40;5.80;;;24.00;82.10;;;;;;5096002;28;20477;-65
2023/08/24 09:14:01;;;;;;;6.20;5.60;;;24.10;80.80;;;;;;5096340;28;20485;-68
2023/08/24 09:16:30;;;;;;;6.97;5.00;;;24.20;79.10;;;;;;5095821;28;20781;-68
2023/08/24 09:18:57;;;;;;;7.30;4.97;;;24.40;77.60;;;;;;5096185;28;20481;-68
2023/08/24 09:21:25;;;;;;;5.30;4.80;;;24.50;76.30;;;;;;5095748;28;20764;-67
2023/08/24 09:23:55;;;;;;;6.90;5.60;;;24.70;75.70;;;;;;5096179;28;20441;-67
2023/08/24 09:26:28;;;;;;;5.93;5.43;;;24.80;74.90;;;;;;5095819;28;20488;-67
2023/08/24 09:28:55;;;;;;;8.87;5.20;;;25.00;74.20;;;;;;5095859;28;20515;-67
2023/08/24 09:31:22;;;;;;;5.90;5.43;;;25.10;73.50;;;;;;5095988;28;20438;-67
2023/08/24 09:33:49;;;;;;;6.70;6.10;;;25.30;72.60;;;;;;5096043;28;20446;-67
2023/08/24 09:36:15;;;;;;;6.40;5.03;;;25.40;71.50;;;;;;5095886;28;20438;-68
2023/08/24 09:38:49;;;;;;;5.17;4.67;;;25.50;70.00;;;;;;5095928;28;20442;-67
2023/08/24 09:41:16;;;;;;;5.40;4.90;;;25.50;69.20;;;;;;5096982;28;20422;-69
2023/08/24 09:43:43;;;;;;;5.00;4.50;;;25.60;68.70;;;;;;5095783;28;20451;-68
2023/08/24 09:46:09;;;;;;;5.17;4.63;;;25.70;68.20;;;;;;5095304;28;20529;-68
2023/08/24 09:48:36;;;;;;;7.83;5.13;;;25.90;67.50;;;;;;5095761;28;20442;-70
2023/08/24 09:51:05;;;;;;;8.80;5.27;;;26.10;66.80;;;;;;5095438;28;20931;-68
2023/08/24 09:53:37;;;;;;;5.70;4.93;;;26.20;66.50;;;;;;5095859;28;20535;-68
2023/08/24 09:56:09;;;;;;;8.43;4.77;;;26.30;66.10;;;;;;5095877;28;20422;-68
2023/08/24 09:58:36;;;;;;;4.80;4.37;;;26.40;65.60;;;;;;5095381;28;20427;-68
2023/08/24 10:01:04;;;;;;;5.70;4.50;;;26.50;65.10;;;;;;5096331;28;20576;-68
2023/08/24 10:03:33;;;;;;;6.30;3.97;;;26.70;64.60;;;;;;5096493;28;20498;-67
2023/08/24 10:06:00;;;;;;;4.80;4.10;;;26.80;63.80;;;;;;5095439;28;20439;-68
2023/08/24 10:08:30;;;;;;;5.37;4.97;;;26.80;63.30;;;;;;5097448;28;20473;-69
2023/08/24 10:10:59;;;;;;;5.23;4.77;;;26.90;63.00;;;;;;5098112;28;20540;-68
2023/08/24 10:13:37;;;;;;;5.90;5.30;;;27.10;62.70;;;;;;5099541;28;20481;-68
2023/08/24 10:16:06;;;;;;;6.10;4.73;;;27.10;62.10;;;;;;5095788;28;20425;-68
2023/08/24 10:18:33;;;;;;;5.27;4.77;;;27.10;61.70;;;;;;5095251;28;20448;-69
2023/08/24 10:21:01;;;;;;;8.03;4.30;;;27.10;61.10;;;;;;5094922;28;20504;-68
2023/08/24 10:23:30;;;;;;;5.70;5.20;;;27.10;60.80;;;;;;5094944;28;20430;-68
2023/08/24 10:25:57;;;;;;;5.40;4.10;;;27.10;60.50;;;;;;5094877;28;20445;-69
2023/08/24 10:28:25;;;;;;;4.70;4.30;;;27.30;60.10;;;;;;5094651;28;20494;-66
2023/08/24 10:30:54;;;;;;;5.63;4.97;;;27.50;59.30;;;;;;5094773;28;20458;-68
2023/08/24 10:33:22;;;;;;;6.93;4.70;;;27.70;58.40;;;;;;5094506;28;20490;-68
2023/08/24 10:35:49;;;;;;;6.67;3.80;;;27.70;57.50;;;;;;5094791;28;20442;-68
2023/08/24 10:38:26;;;;;;;5.57;4.50;;;27.80;57.30;;;;;;5094379;28;20435;-69
2023/08/24 10:40:54;;;;;;;4.27;3.90;;;28.00;57.20;;;;;;5094375;28;20437;-67
2023/08/24 10:43:23;;;;;;;5.20;4.70;;;28.10;56.80;;;;;;5095155;28;20469;-68
2023/08/24 10:45:58;;;;;;;5.73;5.13;;;28.10;56.50;;;;;;5094453;28;20445;-68
2023/08/24 10:48:25;;;;;;;6.50;4.87;;;28.10;56.60;;;;;;5094578;28;20510;-68
2023/08/24 10:51:19;;;;;;;6.87;4.73;;;28.00;56.70;;;;;;5094539;28;20525;-68
2023/08/24 10:53:47;;;;;;;6.97;5.20;;;28.00;56.90;;;;;;5094365;28;20484;-68
2023/08/24 10:56:15;;;;;;;6.40;5.43;;;28.10;56.60;;;;;;5094373;28;20442;-68
2023/08/24 10:58:43;;;;;;;4.00;3.70;;;28.30;56.30;;;;;;5094248;28;20540;-68
2023/08/24 11:01:18;;;;;;;5.70;4.80;;;28.40;55.80;;;;;;5094668;28;20870;-68
2023/08/24 11:03:50;;;;;;;5.53;3.87;;;28.60;55.50;;;;;;5094694;28;20471;-69
2023/08/24 11:06:21;;;;;;;3.40;3.00;;;28.80;54.90;;;;;;5094481;28;20430;-68
2023/08/24 11:08:48;;;;;;;8.17;4.20;;;28.90;54.10;;;;;;5094257;28;20461;-67
2023/08/24 11:11:22;;;;;;;5.30;4.80;;;29.00;53.70;;;;;;5094470;28;20953;-68
2023/08/24 11:14:17;;;;;;;6.20;5.63;;;29.10;53.70;;;;;;5094726;28;20485;-68
2023/08/24 11:16:47;;;;;;;5.90;4.60;;;29.10;53.50;;;;;;5088273;28;20537;-67
2023/08/24 11:19:14;;;;;;;8.00;5.50;;;29.20;53.50;;;;;;5096755;28;20469;-68
2023/08/24 11:21:43;;;;;;;6.00;5.40;;;29.30;53.30;;;;;;5097153;28;20434;-69
2023/08/24 11:24:11;;;;;;;4.40;4.10;;;29.20;53.10;;;;;;5097021;28;20533;-68
2023/08/24 11:26:42;;;;;;;5.07;4.67;;;29.10;53.10;;;;;;5097936;28;20434;-68
2023/08/24 11:29:09;;;;;;;10.20;5.37;;;29.10;53.20;;;;;;5098041;28;20484;-69
2023/08/24 11:31:36;;;;;;;5.30;4.80;;;29.20;53.20;;;;;;5094529;28;20443;-67
2023/08/24 11:34:05;;;;;;;4.43;4.13;;;29.40;53.00;;;;;;5093369;28;20539;-68
2023/08/24 11:36:32;;;;;;;5.70;5.20;;;29.50;52.60;;;;;;5093290;28;20811;-69
2023/08/24 11:39:00;;;;;;;7.20;4.80;;;29.70;52.10;;;;;;5093684;28;20462;-69
2023/08/24 11:41:27;;;;;;;9.67;5.50;;;29.90;51.70;;;;;;5093568;28;20434;-69
2023/08/24 11:44:03;;;;;;;6.00;4.57;;;30.10;51.20;;;;;;5093027;28;20939;-69
2023/08/24 11:46:31;;;;;;;5.47;4.97;;;30.30;50.60;;;;;;5093221;28;20907;-67
2023/08/24 11:48:59;;;;;;;5.20;4.70;;;30.40;50.00;;;;;;5093005;28;20528;-67
2023/08/24 11:51:27;;;;;;;5.40;4.90;;;30.90;49.20;;;;;;5093780;28;20423;-67
2023/08/24 11:53:56;;;;;;;6.20;4.43;;;31.50;48.10;;;;;;5093472;28;20477;-67
2023/08/24 11:56:23;;;;;;;5.53;5.03;;;32.10;46.90;;;;;;5093138;28;20950;-67
2023/08/24 11:58:51;;;;;;;5.30;4.20;;;32.40;45.90;;;;;;5093123;28;20459;-67
2023/08/24 12:01:18;;;;;;;5.50;4.13;;;32.50;45.30;;;;;;5093143;28;20442;-68
2023/08/24 12:03:45;;;;;;;5.50;4.60;;;32.60;45.10;;;;;;5093200;28;20441;-67
2023/08/24 12:06:14;;;;;;;7.07;4.00;;;32.70;44.70;;;;;;5093097;28;20449;-69
2023/08/24 12:08:43;;;;;;;4.10;3.80;;;32.90;44.40;;;;;;5092897;28;20446;-69
2023/08/24 12:11:14;;;;;;;4.80;4.00;;;33.10;44.10;;;;;;5092629;28;20449;-66
2023/08/24 12:13:45;;;;;;;5.70;3.80;;;33.20;43.50;;;;;;5093325;28;20538;-68
2023/08/24 12:16:13;;;;;;;6.57;3.80;;;33.30;42.90;;;;;;5093109;28;20962;-67
2023/08/24 12:18:49;;;;;;;5.27;3.67;;;33.00;42.70;;;;;;5093105;28;20446;-67
2023/08/24 12:21:15;;;;;;;3.90;3.60;;;32.70;42.90;;;;;;5093101;28;20427;-66
2023/08/24 12:23:44;;;;;;;6.13;4.00;;;32.60;43.20;;;;;;5093307;28;20438;-68
2023/08/24 12:26:18;;;;;;;3.50;3.07;;;32.40;43.40;;;;;;5093574;28;20936;-69
2023/08/24 12:28:50;;;;;;;3.93;3.10;;;32.00;43.50;;;;;;5092678;28;20811;-68
2023/08/24 12:31:18;;;;;;;4.03;3.30;;;31.70;44.30;;;;;;5092674;28;20422;-68
2023/08/24 12:33:45;;;;;;;3.83;3.53;;;31.40;44.80;;;;;;5095864;28;21003;-67
2023/08/24 12:36:12;;;;;;;5.00;3.67;;;31.30;45.10;;;;;;5096676;28;20931;-68
2023/08/24 12:38:41;;;;;;;4.20;3.53;;;31.30;45.30;;;;;;5097021;28;20445;-68
2023/08/24 12:41:09;;;;;;;3.83;3.10;;;31.20;45.80;;;;;;5097173;28;20452;-66
2023/08/24 12:43:36;;;;;;;5.20;2.87;;;31.10;45.30;;;;;;5096478;28;21041;-68
2023/08/24 12:46:03;;;;;;;4.20;3.50;;;31.00;45.50;;;;;;5097094;28;20446;-69
2023/08/24 12:48:29;;;;;;;4.20;3.50;;;31.00;45.50;;;;;;5097393;28;20442;-68
2023/08/24 12:50:56;;;;;;;3.43;3.07;;;31.00;45.00;;;;;;5096467;28;20951;-68